createdAt,value
2018-10-06T00:00:26.785Z,10.11
2018-10-06T00:02:57.096Z,10.05
2018-10-06T00:05:27.041Z,9.84
2018-10-06T00:07:56.842Z,9.90
2018-10-06T00:10:26.738Z,9.98
2018-10-06T00:12:56.577Z,9.98
2018-10-06T00:15:27.025Z,10.01
2018-10-06T00:17:56.773Z,9.88
2018-10-06T00:20:26.809Z,9.72
2018-10-06T00:22:56.617Z,9.85
2018-10-06T00:25:26.614Z,9.96
2018-10-06T00:27:56.835Z,9.90
2018-10-06T00:30:26.610Z,9.88
2018-10-06T00:32:56.737Z,9.92
2018-10-06T00:35:26.634Z,9.97
2018-10-06T00:37:56.748Z,10.01
2018-10-06T00:40:26.712Z,10.06
2018-10-06T00:42:56.785Z,10.10
2018-10-06T00:45:26.735Z,10.10
2018-10-06T00:47:56.636Z,10.10
2018-10-06T00:50:26.581Z,10.10
2018-10-06T00:52:56.697Z,10.10
2018-10-06T00:55:26.685Z,10.10
2018-10-06T00:57:56.508Z,10.05
2018-10-06T01:00:26.326Z,10.04
2018-10-06T01:02:56.263Z,10.02
2018-10-06T01:05:26.129Z,9.99
2018-10-06T01:07:55.881Z,10.00
2018-10-06T01:10:25.612Z,9.97
2018-10-06T01:12:55.437Z,9.94
2018-10-06T01:15:25.202Z,9.92
2018-10-06T01:17:55.181Z,9.66
2018-10-06T01:20:25.674Z,9.58
2018-10-06T01:22:56.775Z,9.30
2018-10-06T01:25:27.573Z,9.27
2018-10-06T01:27:58.905Z,9.00
2018-10-06T01:30:29.684Z,8.96
2018-10-06T01:33:00.604Z,8.92
2018-10-06T01:35:31.369Z,9.09
2018-10-06T01:38:02.735Z,9.11
2018-10-06T01:40:33.519Z,9.03
2018-10-06T01:43:05.081Z,8.96
2018-10-06T01:45:35.652Z,8.92
2018-10-06T01:48:06.515Z,8.97
2018-10-06T01:50:37.320Z,8.92
2018-10-06T01:53:09.073Z,8.82
2018-10-06T01:55:39.748Z,8.75
2018-10-06T01:58:10.789Z,8.67
2018-10-06T02:00:41.605Z,8.60
2018-10-06T02:03:12.537Z,8.70
2018-10-06T02:05:43.730Z,8.81
2018-10-06T02:08:14.865Z,8.67
2018-10-06T02:10:45.673Z,8.87
2018-10-06T02:13:16.947Z,8.89
2018-10-06T02:15:48.021Z,8.98
2018-10-06T02:18:18.625Z,8.99
2018-10-06T02:20:49.387Z,8.93
2018-10-06T02:23:20.785Z,8.86
2018-10-06T02:25:51.654Z,8.87
2018-10-06T02:28:22.580Z,8.77
2018-10-06T02:30:53.344Z,8.67
2018-10-06T02:33:24.766Z,8.79
2018-10-06T02:35:55.878Z,8.74
2018-10-06T02:38:27.061Z,8.67
2018-10-06T02:41:05.205Z,8.61
2018-10-06T02:43:35.110Z,8.58
2018-10-06T02:46:05.490Z,8.52
2018-10-06T02:48:35.600Z,8.59
2018-10-06T02:51:05.361Z,8.64
2018-10-06T02:53:35.248Z,8.67
2018-10-06T02:56:05.493Z,8.70
2018-10-06T02:58:35.237Z,8.65
2018-10-06T03:01:05.857Z,8.60
2018-10-06T03:03:36.675Z,8.71
2018-10-06T03:06:07.593Z,8.66
2018-10-06T03:08:38.381Z,8.69
2018-10-06T03:11:09.731Z,8.46
2018-10-06T03:13:41.019Z,8.45
2018-10-06T03:16:11.638Z,8.47
2018-10-06T03:18:42.395Z,8.42
2018-10-06T03:21:13.765Z,8.36
2018-10-06T03:23:44.484Z,8.38
2018-10-06T03:26:15.755Z,8.41
2018-10-06T03:28:46.481Z,8.46
2018-10-06T03:31:17.978Z,8.53
2018-10-06T03:33:48.567Z,8.57
2018-10-06T03:36:19.559Z,8.58
2018-10-06T03:38:50.461Z,8.52
2018-10-06T03:41:21.724Z,8.60
2018-10-06T03:43:52.697Z,8.60
2018-10-06T03:46:23.521Z,8.57
2018-10-06T03:48:54.357Z,8.58
2018-10-06T03:51:25.725Z,8.60
2018-10-06T03:53:56.613Z,8.45
2018-10-06T03:56:28.016Z,8.39
2018-10-06T03:58:58.761Z,8.45
2018-10-06T04:01:29.639Z,8.45
2018-10-06T04:04:00.398Z,8.51
2018-10-06T04:06:31.865Z,8.54
2018-10-06T04:09:02.584Z,8.62
2018-10-06T04:11:33.586Z,8.55
2018-10-06T04:14:04.393Z,8.69
2018-10-06T04:16:35.841Z,8.61
2018-10-06T04:19:06.742Z,8.60
2018-10-06T04:21:52.575Z,8.41
2018-10-06T04:24:22.604Z,8.55
2018-10-06T04:26:52.414Z,8.61
2018-10-06T04:29:22.497Z,8.65
2018-10-06T04:31:52.250Z,8.68
2018-10-06T04:34:22.305Z,8.71
2018-10-06T04:36:52.126Z,8.72
2018-10-06T04:39:22.392Z,8.62
2018-10-06T04:41:52.477Z,8.66
2018-10-06T04:44:22.184Z,8.60
2018-10-06T04:46:52.526Z,8.56
2018-10-06T04:49:22.572Z,8.41
2018-10-06T04:51:52.336Z,8.43
2018-10-06T04:54:22.409Z,8.41
2018-10-06T04:56:52.244Z,8.39
2018-10-06T04:59:22.783Z,8.00
2018-10-06T05:01:53.574Z,8.39
2018-10-06T05:04:24.424Z,8.37
2018-10-06T05:06:55.545Z,8.40
2018-10-06T05:09:26.650Z,8.46
2018-10-06T05:11:57.393Z,8.48
2018-10-06T05:14:28.978Z,8.57
2018-10-06T05:16:59.645Z,8.54
2018-10-06T05:19:30.545Z,8.46
2018-10-06T05:22:01.325Z,8.50
2018-10-06T05:24:32.700Z,8.67
2018-10-06T05:27:03.502Z,8.65
2018-10-06T05:29:34.411Z,8.67
2018-10-06T05:32:05.352Z,8.64
2018-10-06T05:34:36.756Z,8.58
2018-10-06T05:37:07.556Z,8.66
2018-10-06T05:39:38.776Z,8.73
2018-10-06T05:42:09.539Z,8.80
2018-10-06T05:44:40.598Z,8.84
2018-10-06T05:47:11.527Z,8.91
2018-10-06T05:49:42.462Z,8.95
2018-10-06T05:52:13.316Z,8.97
2018-10-06T05:54:44.875Z,8.97
2018-10-06T05:57:15.631Z,9.03
2018-10-06T05:59:46.557Z,9.02
2018-10-06T06:02:17.433Z,9.02
2018-10-06T06:04:48.646Z,9.00
2018-10-06T06:07:19.386Z,9.08
2018-10-06T06:09:50.690Z,9.09
2018-10-06T06:12:21.657Z,9.05
2018-10-06T06:14:52.925Z,9.06
2018-10-06T06:18:47.715Z,9.14
2018-10-06T06:21:17.889Z,9.28
2018-10-06T06:23:47.681Z,9.38
2018-10-06T06:26:17.665Z,9.52
2018-10-06T06:28:47.632Z,9.67
2018-10-06T06:31:17.631Z,9.82
2018-10-06T06:33:47.802Z,9.92
2018-10-06T06:36:17.603Z,10.04
2018-10-06T06:38:47.767Z,10.17
2018-10-06T06:41:17.685Z,10.30
2018-10-06T06:43:47.953Z,10.50
2018-10-06T06:46:17.949Z,10.63
2018-10-06T06:48:47.853Z,10.72
2018-10-06T06:51:18.313Z,10.92
2018-10-06T06:53:48.048Z,11.04
2018-10-06T06:56:17.881Z,11.16
2018-10-06T06:58:47.950Z,11.38
2018-10-06T07:01:17.708Z,11.51
2018-10-06T07:03:47.820Z,11.62
2018-10-06T07:06:17.556Z,11.75
2018-10-06T07:08:47.713Z,11.93
2018-10-06T07:11:17.824Z,12.09
2018-10-06T07:13:47.784Z,12.22
2018-10-06T07:16:17.861Z,12.33
2018-10-06T07:18:47.635Z,12.42
2018-10-06T07:21:17.718Z,12.59
2018-10-06T07:23:47.690Z,12.67
2018-10-06T07:26:18.772Z,12.74
2018-10-06T07:28:55.318Z,12.97
2018-10-06T07:31:26.993Z,13.09
2018-10-06T07:33:56.862Z,13.21
2018-10-06T07:36:26.777Z,13.23
2018-10-06T07:38:56.964Z,13.51
2018-10-06T07:41:26.737Z,13.68
2018-10-06T07:43:56.796Z,13.83
2018-10-06T07:46:26.745Z,13.99
2018-10-06T07:48:56.717Z,14.18
2018-10-06T07:51:26.643Z,14.30
2018-10-06T07:53:56.682Z,14.50
2018-10-06T07:56:26.819Z,14.64
2018-10-06T07:58:56.914Z,14.79
2018-10-06T08:01:26.669Z,15.01
2018-10-06T08:03:56.698Z,15.13
2018-10-06T08:06:26.691Z,15.26
2018-10-06T08:08:56.633Z,15.44
2018-10-06T08:11:26.706Z,15.55
2018-10-06T08:13:56.847Z,15.67
2018-10-06T08:16:26.624Z,15.83
2018-10-06T08:18:56.701Z,15.95
2018-10-06T08:21:26.560Z,16.12
2018-10-06T08:23:56.690Z,16.28
2018-10-06T08:26:26.666Z,16.44
2018-10-06T08:28:56.661Z,16.60
2018-10-06T08:31:26.722Z,16.76
2018-10-06T08:33:56.819Z,16.95
2018-10-06T08:36:26.912Z,17.12
2018-10-06T08:38:56.688Z,17.19
2018-10-06T08:41:26.622Z,17.22
2018-10-06T08:43:56.649Z,17.37
2018-10-06T08:46:26.694Z,17.46
2018-10-06T08:48:56.752Z,17.55
2018-10-06T08:51:26.622Z,17.67
2018-10-06T08:53:56.682Z,17.81
2018-10-06T08:56:26.974Z,17.87
2018-10-06T08:58:56.805Z,18.02
2018-10-06T09:01:26.853Z,18.13
2018-10-06T09:03:56.626Z,18.23
2018-10-06T09:06:26.696Z,18.38
2018-10-06T09:08:56.707Z,18.50
2018-10-06T09:11:26.665Z,18.62
2018-10-06T09:13:56.685Z,18.73
2018-10-06T09:16:26.533Z,18.82
2018-10-06T09:18:56.693Z,18.95
2018-10-06T09:21:26.600Z,19.07
2018-10-06T09:23:56.598Z,19.21
2018-10-06T09:26:26.713Z,19.32
2018-10-06T09:28:56.628Z,19.50
2018-10-06T09:31:26.743Z,19.47
2018-10-06T09:33:56.656Z,19.60
2018-10-06T09:36:26.786Z,19.62
2018-10-06T09:38:56.621Z,19.65
2018-10-06T09:41:26.904Z,19.67
2018-10-06T09:43:57.385Z,19.73
2018-10-06T09:46:27.474Z,19.82
2018-10-06T09:48:57.448Z,19.95
2018-10-06T09:51:27.276Z,19.94
2018-10-06T09:53:57.272Z,20.06
2018-10-06T09:56:27.225Z,20.14
2018-10-06T09:59:00.872Z,20.10
2018-10-06T10:01:35.908Z,20.28
2018-10-06T10:04:10.358Z,20.28
2018-10-06T10:06:40.796Z,20.31
2018-10-06T10:09:13.066Z,20.35
2018-10-06T10:11:43.059Z,20.41
2018-10-06T10:14:13.126Z,20.41
2018-10-06T10:16:43.389Z,20.52
2018-10-06T10:19:13.132Z,20.61
2018-10-06T10:21:42.959Z,20.66
2018-10-06T10:24:12.854Z,20.68
2018-10-06T10:26:43.107Z,20.73
2018-10-06T10:29:13.224Z,20.85
2018-10-06T10:31:43.080Z,20.90
2018-10-06T10:34:13.208Z,20.98
2018-10-06T10:36:43.161Z,21.07
2018-10-06T10:39:13.611Z,21.20
2018-10-06T10:41:43.622Z,21.34
2018-10-06T10:44:13.391Z,21.47
2018-10-06T10:46:43.474Z,21.63
2018-10-06T10:49:13.241Z,21.87
2018-10-06T10:51:43.005Z,22.01
2018-10-06T10:54:12.808Z,22.08
2018-10-06T10:56:42.649Z,22.19
2018-10-06T10:59:12.686Z,22.21
2018-10-06T11:01:43.558Z,22.31
2018-10-06T11:04:14.629Z,22.36
2018-10-06T11:06:45.465Z,22.57
2018-10-06T11:09:16.281Z,22.69
2018-10-06T11:11:47.753Z,22.72
2018-10-06T11:14:18.517Z,22.84
2018-10-06T11:16:49.352Z,22.88
2018-10-06T11:19:20.631Z,22.97
2018-10-06T11:21:51.548Z,23.20
2018-10-06T11:24:22.368Z,23.30
2018-10-06T11:26:53.823Z,23.44
2018-10-06T11:29:25.169Z,23.69
2018-10-06T11:31:55.716Z,23.86
2018-10-06T11:34:26.476Z,23.93
2018-10-06T11:36:57.887Z,24.01
2018-10-06T11:39:28.530Z,23.95
2018-10-06T11:41:59.526Z,23.93
2018-10-06T11:44:30.314Z,24.01
2018-10-06T11:47:01.787Z,24.36
2018-10-06T11:49:31.760Z,24.41
2018-10-06T11:52:02.984Z,24.42
2018-10-06T11:54:34.476Z,24.55
2018-10-06T11:57:05.811Z,24.68
2018-10-06T11:59:35.670Z,24.74
2018-10-06T12:02:06.740Z,24.72
2018-10-06T12:04:37.729Z,24.85
2018-10-06T12:07:08.713Z,24.84
2018-10-06T12:09:39.452Z,24.79
2018-10-06T12:12:10.924Z,24.86
2018-10-06T12:14:41.529Z,24.93
2018-10-06T12:17:12.654Z,25.01
2018-10-06T12:19:43.757Z,25.11
2018-10-06T12:22:14.538Z,25.05
2018-10-06T12:24:45.537Z,24.79
2018-10-06T12:27:16.412Z,24.91
2018-10-06T12:29:47.676Z,24.94
2018-10-06T12:32:18.504Z,24.22
2018-10-06T12:34:49.575Z,25.13
2018-10-06T12:37:20.843Z,25.34
2018-10-06T12:39:51.677Z,25.40
2018-10-06T12:42:23.158Z,25.51
2018-10-06T12:44:53.682Z,25.75
2018-10-06T12:47:24.595Z,25.95
2018-10-06T12:49:55.397Z,26.13
2018-10-06T12:52:26.818Z,26.03
2018-10-06T12:54:57.600Z,26.03
2018-10-06T12:57:28.485Z,25.99
2018-10-06T12:59:59.546Z,26.04
2018-10-06T13:02:30.670Z,26.03
2018-10-06T13:05:01.826Z,26.04
2018-10-06T13:07:32.837Z,26.12
2018-10-06T13:10:03.680Z,26.23
2018-10-06T13:12:34.513Z,26.46
2018-10-06T13:15:05.493Z,26.52
2018-10-06T13:17:36.425Z,26.78
2018-10-06T13:20:07.748Z,26.89
2018-10-06T13:22:39.007Z,26.93
2018-10-06T13:25:10.123Z,26.80
2018-10-06T13:27:40.697Z,26.65
2018-10-06T13:30:11.701Z,26.61
2018-10-06T13:32:42.633Z,26.59
2018-10-06T13:35:13.486Z,26.58
2018-10-06T13:37:44.785Z,26.62
2018-10-06T13:40:15.593Z,26.61
2018-10-06T13:42:46.601Z,26.61
2018-10-06T13:45:17.343Z,26.59
2018-10-06T13:47:48.700Z,26.66
2018-10-06T13:50:19.541Z,26.67
2018-10-06T13:52:50.563Z,26.58
2018-10-06T13:55:21.477Z,26.76
2018-10-06T13:57:52.782Z,26.82
2018-10-06T14:00:23.753Z,26.82
2018-10-06T14:02:54.921Z,26.82
2018-10-06T14:05:25.714Z,26.76
2018-10-06T14:07:56.929Z,26.93
2018-10-06T14:10:27.847Z,26.92
2018-10-06T14:12:59.040Z,26.82
2018-10-06T14:15:29.745Z,26.71
2018-10-06T14:18:01.193Z,26.55
2018-10-06T14:20:31.784Z,26.44
2018-10-06T14:23:02.762Z,26.48
2018-10-06T14:25:34.405Z,26.32
2018-10-06T14:28:04.824Z,26.16
2018-10-06T14:30:35.863Z,26.01
2018-10-06T14:33:07.052Z,26.04
2018-10-06T14:35:37.876Z,25.90
2018-10-06T14:38:09.879Z,25.91
2018-10-06T14:40:39.857Z,25.87
2018-10-06T14:43:10.785Z,25.86
2018-10-06T14:45:41.879Z,25.90
2018-10-06T14:48:12.797Z,25.85
2018-10-06T14:50:43.827Z,25.77
2018-10-06T14:53:14.742Z,25.66
2018-10-06T14:55:45.581Z,25.72
2018-10-06T14:58:16.621Z,25.69
2018-10-06T15:00:47.610Z,25.43
2018-10-06T15:03:18.591Z,25.58
2018-10-06T15:05:49.482Z,25.68
2018-10-06T15:08:20.613Z,25.69
2018-10-06T15:10:51.485Z,25.51
2018-10-06T15:13:22.621Z,25.32
2018-10-06T15:15:53.488Z,25.10
2018-10-06T15:18:24.469Z,24.82
2018-10-06T15:20:55.365Z,24.85
2018-10-06T15:23:27.029Z,24.85
2018-10-06T15:25:58.154Z,24.62
2018-10-06T15:28:28.759Z,24.56
2018-10-06T15:30:59.517Z,24.48
2018-10-06T15:33:30.441Z,24.37
2018-10-06T15:36:01.617Z,24.19
2018-10-06T15:38:32.484Z,24.03
2018-10-06T15:41:03.416Z,24.02
2018-10-06T15:43:34.522Z,24.13
2018-10-06T15:46:05.311Z,24.09
2018-10-06T15:48:37.173Z,24.12
2018-10-06T15:51:07.815Z,24.03
2018-10-06T15:53:38.747Z,23.92
2018-10-06T15:56:09.670Z,23.84
2018-10-06T15:58:40.578Z,23.75
2018-10-06T16:01:11.566Z,23.61
2018-10-06T16:03:42.548Z,23.47
2018-10-06T16:06:13.408Z,23.26
2018-10-06T16:08:44.914Z,23.08
2018-10-06T16:11:15.646Z,22.89
2018-10-06T16:13:46.513Z,22.67
2018-10-06T16:16:17.742Z,22.68
2018-10-06T16:18:48.769Z,22.55
2018-10-06T16:21:19.573Z,22.41
2018-10-06T16:23:50.449Z,22.34
2018-10-06T16:26:21.776Z,22.29
2018-10-06T16:28:52.966Z,22.20
2018-10-06T16:31:23.550Z,22.12
2018-10-06T16:33:54.573Z,21.99
2018-10-06T16:36:25.326Z,22.01
2018-10-06T16:38:56.741Z,22.02
2018-10-06T16:41:27.509Z,21.88
2018-10-06T16:43:58.491Z,21.71
2018-10-06T16:46:29.321Z,21.70
2018-10-06T16:49:00.697Z,21.64
2018-10-06T16:51:31.705Z,21.48
2018-10-06T16:54:02.652Z,21.52
2018-10-06T16:56:33.481Z,21.56
2018-10-06T16:59:04.513Z,21.42
2018-10-06T17:01:35.569Z,21.38
2018-10-06T17:04:06.845Z,21.34
2018-10-06T17:06:37.640Z,21.39
2018-10-06T17:09:10.765Z,21.29
2018-10-06T17:11:40.549Z,21.23
2018-10-06T17:14:16.929Z,21.15
2018-10-06T17:16:47.273Z,21.01
2018-10-06T17:19:17.221Z,20.94
2018-10-06T17:21:47.005Z,20.75
2018-10-06T17:24:16.995Z,20.70
2018-10-06T17:26:47.590Z,20.69
2018-10-06T17:29:17.386Z,20.59
2018-10-06T17:31:48.025Z,20.49
2018-10-06T17:34:18.654Z,20.51
2018-10-06T17:36:49.569Z,20.44
2018-10-06T17:39:20.310Z,20.37
2018-10-06T17:41:51.721Z,20.43
2018-10-06T17:44:22.714Z,20.32
2018-10-06T17:46:53.773Z,20.41
2018-10-06T17:49:24.577Z,20.25
2018-10-06T17:51:55.524Z,20.35
2018-10-06T17:54:26.425Z,20.33
2018-10-06T17:56:57.768Z,20.33
2018-10-06T17:59:28.586Z,20.34
2018-10-06T18:01:59.583Z,20.35
2018-10-06T18:04:30.393Z,20.04
2018-10-06T18:07:01.713Z,20.35
2018-10-06T18:09:34.377Z,20.33
2018-10-06T18:12:04.438Z,20.31
2018-10-06T18:14:34.706Z,20.31
2018-10-06T18:17:06.981Z,20.26
2018-10-06T18:19:37.019Z,20.25
2018-10-06T18:22:07.760Z,20.22
2018-10-06T18:24:38.555Z,20.20
2018-10-06T18:27:09.712Z,20.16
2018-10-06T18:29:44.044Z,20.12
2018-10-06T18:32:14.209Z,20.11
2018-10-06T18:34:44.529Z,20.09
2018-10-06T18:37:14.417Z,20.07
2018-10-06T18:39:44.495Z,20.05
2018-10-06T18:42:15.966Z,19.92
2018-10-06T18:44:46.614Z,19.93
2018-10-06T18:47:17.633Z,19.77
2018-10-06T18:49:48.516Z,19.80
2018-10-06T18:52:19.618Z,19.78
2018-10-06T18:54:50.545Z,19.72
2018-10-06T18:57:21.564Z,19.71
2018-10-06T18:59:52.309Z,19.69
2018-10-06T19:02:23.961Z,19.67
2018-10-06T19:04:54.553Z,19.65
2018-10-06T19:07:26.049Z,19.60
2018-10-06T19:09:56.585Z,19.55
2018-10-06T19:12:27.767Z,19.44
2018-10-06T19:14:58.496Z,19.39
2018-10-06T19:17:29.489Z,19.32
2018-10-06T19:20:00.387Z,19.26
2018-10-06T19:22:31.907Z,19.23
2018-10-06T19:25:02.866Z,19.22
2018-10-06T19:27:33.834Z,19.20
2018-10-06T19:30:04.716Z,19.20
2018-10-06T19:32:35.832Z,19.22
2018-10-06T19:35:06.829Z,19.13
2018-10-06T19:37:37.753Z,19.17
2018-10-06T19:40:08.601Z,19.11
2018-10-06T19:42:39.469Z,19.07
2018-10-06T19:45:10.764Z,19.00
2018-10-06T19:47:41.764Z,18.96
2018-10-06T19:50:12.589Z,19.01
2018-10-06T19:52:52.188Z,19.02
2018-10-06T19:55:24.018Z,19.02
2018-10-06T19:57:53.981Z,19.05
2018-10-06T20:00:24.534Z,19.01
2018-10-06T20:02:54.697Z,18.96
2018-10-06T20:05:24.495Z,18.88
2018-10-06T20:07:54.504Z,18.88
2018-10-06T20:10:25.241Z,18.82
2018-10-06T20:12:55.277Z,18.76
2018-10-06T20:15:25.289Z,18.73
2018-10-06T20:17:55.077Z,18.75
2018-10-06T20:20:25.502Z,18.61
2018-10-06T20:22:55.799Z,18.60
2018-10-06T20:25:25.610Z,18.71
2018-10-06T20:27:56.444Z,18.63
2018-10-06T20:30:28.220Z,18.55
2018-10-06T20:32:58.807Z,18.58
2018-10-06T20:35:30.373Z,18.54
2018-10-06T20:38:00.873Z,18.55
2018-10-06T20:40:31.632Z,18.44
2018-10-06T20:43:02.669Z,18.38
2018-10-06T20:45:33.453Z,18.36
2018-10-06T20:48:04.458Z,18.42
2018-10-06T20:50:35.338Z,18.42
2018-10-06T20:53:06.749Z,18.32
2018-10-06T20:55:37.539Z,18.35
2018-10-06T20:58:08.460Z,18.33
2018-10-06T21:00:39.673Z,18.36
2018-10-06T21:03:10.902Z,18.34
2018-10-06T21:05:41.673Z,18.36
2018-10-06T21:08:12.512Z,18.33
2018-10-06T21:10:43.334Z,18.25
2018-10-06T21:13:14.799Z,18.21
2018-10-06T21:15:45.566Z,18.21
2018-10-06T21:18:16.552Z,18.15
2018-10-06T21:20:47.526Z,18.19
2018-10-06T21:23:18.518Z,18.11
2018-10-06T21:25:49.326Z,18.17
2018-10-06T21:28:20.737Z,18.15
2018-10-06T21:30:51.492Z,18.12
2018-10-06T21:33:22.742Z,18.06
2018-10-06T21:35:53.504Z,18.07
2018-10-06T21:38:24.419Z,18.06
2018-10-06T21:40:55.687Z,18.12
2018-10-06T21:43:26.754Z,17.99
2018-10-06T21:45:57.564Z,18.02
2018-10-06T21:48:28.798Z,18.01
2018-10-06T21:50:59.579Z,17.98
2018-10-06T21:53:30.617Z,17.98
2018-10-06T21:56:01.537Z,17.89
2018-10-06T21:58:32.398Z,17.93
2018-10-06T22:01:11.474Z,17.92
2018-10-06T22:03:42.221Z,17.90
2018-10-06T22:06:12.033Z,17.94
2018-10-06T22:08:42.417Z,17.96
2018-10-06T22:11:12.193Z,17.97
2018-10-06T22:13:42.014Z,17.93
2018-10-06T22:16:11.895Z,17.91
2018-10-06T22:18:41.621Z,17.89
2018-10-06T22:21:11.549Z,17.77
2018-10-06T22:23:42.364Z,17.71
2018-10-06T22:26:13.721Z,17.62
2018-10-06T22:28:44.796Z,17.50
2018-10-06T22:31:15.769Z,17.26
2018-10-06T22:33:46.886Z,17.52
2018-10-06T22:36:17.566Z,17.36
2018-10-06T22:38:48.596Z,17.30
2018-10-06T22:41:19.369Z,17.33
2018-10-06T22:43:50.867Z,17.34
2018-10-06T22:46:21.605Z,17.33
2018-10-06T22:48:52.638Z,17.30
2018-10-06T22:51:24.909Z,17.25
2018-10-06T22:53:54.914Z,17.21
2018-10-06T22:56:25.865Z,17.17
2018-10-06T22:58:57.062Z,17.16
2018-10-06T23:01:27.883Z,17.15
2018-10-06T23:03:59.009Z,17.21
2018-10-06T23:06:30.290Z,17.13
2018-10-06T23:09:02.140Z,17.04
2018-10-06T23:11:31.963Z,17.13
2018-10-06T23:14:02.881Z,17.12
2018-10-06T23:16:33.582Z,17.08
2018-10-06T23:19:05.076Z,17.05
2018-10-06T23:21:35.943Z,17.07
2018-10-06T23:24:06.716Z,17.07
2018-10-06T23:26:37.589Z,16.91
2018-10-06T23:29:08.509Z,17.00
2018-10-06T23:31:39.753Z,16.94
2018-10-06T23:34:10.955Z,16.94
2018-10-06T23:36:41.664Z,16.82
2018-10-06T23:39:12.721Z,16.83
2018-10-06T23:41:43.943Z,16.65
2018-10-06T23:44:14.642Z,16.38
2018-10-06T23:46:45.456Z,16.55
2018-10-06T23:49:16.812Z,16.40
2018-10-06T23:51:47.621Z,16.31
2018-10-06T23:54:18.517Z,16.29
2018-10-06T23:56:49.365Z,16.32
2018-10-06T23:59:20.590Z,16.12
